Main page
METAR-TAF:

METAR-TAF

Airports :

Gloucestershire Airport

Gloucester, England

latitude: 51-54N, longitude: 002-10W, elevation: 29 m

Current weather observation

The report was made 22 minutes ago, at 07:50 UTC
Wind 16 kt from the South/Southwest
Temperature 10°C
Humidity 82%
Pressure 1004 hPa
Visibility 10 km or more
Few clouds at a height of 1800 ft
Broken clouds at a height of 3000 ft
light rain, drizzle

METAR: EGBJ 200750Z 20016KT 9999 -RADZ FEW018 BKN030 10/07 Q1004

Time: 08:12 (08:12 UTC)

Forecast

The report was made 15 hours and 5 minutes ago, at 17:07 UTC
Forecast valid from 19 at 18 UTC to 19 at 20 UTC
Wind 11 kt from the Southwest
Visibility 10 km or more
Scattered clouds at a height of 1800 ft
Temporary
from 19 at 18 UTC to 19 at 20 UTC
Wind 15 kt from the West/Southwest with gusts up to 25 kt
Visibility: 7000 m
Broken clouds at a height of 400 ft
light rain, drizzle

TAF: EGBJ 191707Z 1918/1920 22011KT 9999 SCT018 TEMPO 1918/1920 24015G25KT 7000 -RADZ BKN004

Weather observations and forecasts of more than 4000 airports (METAR and TAF reports).

The available stations are represented by yellow and red dots on the map.

Hover mouse over dot to see the name of the station.

Then click to see weather observations and forecasts.

To change the map : click on the green buttons with a black cross to zoom in, on the green button with a dash to zoom out, or on the green arrows for adjacent maps.


METAR-TAF: